sensor_id;sensor_type;location;lat;lon;timestamp;P1;durP1;ratioP1;P2;durP2;ratioP2
14015;SDS011;7083;48.854;9.158;2022-09-09T00:01:00;586.40;;;543.30;;
14015;SDS011;7083;48.854;9.158;2022-09-09T00:03:39;584.47;;;540.97;;
14015;SDS011;7083;48.854;9.158;2022-09-09T00:06:13;580.97;;;537.47;;
14015;SDS011;7083;48.854;9.158;2022-09-09T00:08:49;605.57;;;557.03;;
14015;SDS011;7083;48.854;9.158;2022-09-09T00:11:26;613.43;;;564.07;;
14015;SDS011;7083;48.854;9.158;2022-09-09T00:14:01;662.37;;;611.73;;
14015;SDS011;7083;48.854;9.158;2022-09-09T00:16:34;613.00;;;563.17;;
14015;SDS011;7083;48.854;9.158;2022-09-09T00:19:08;645.70;;;595.33;;
14015;SDS011;7083;48.854;9.158;2022-09-09T00:21:46;625.27;;;577.77;;
14015;SDS011;7083;48.854;9.158;2022-09-09T00:24:23;688.40;;;635.23;;
14015;SDS011;7083;48.854;9.158;2022-09-09T00:26:53;667.43;;;613.40;;
14015;SDS011;7083;48.854;9.158;2022-09-09T00:29:28;708.03;;;649.33;;
14015;SDS011;7083;48.854;9.158;2022-09-09T00:32:05;715.87;;;656.87;;
14015;SDS011;7083;48.854;9.158;2022-09-09T00:34:39;750.23;;;688.77;;
14015;SDS011;7083;48.854;9.158;2022-09-09T00:37:13;759.93;;;697.77;;
14015;SDS011;7083;48.854;9.158;2022-09-09T00:39:41;763.87;;;700.43;;
14015;SDS011;7083;48.854;9.158;2022-09-09T00:42:13;776.63;;;713.13;;
14015;SDS011;7083;48.854;9.158;2022-09-09T00:44:46;771.20;;;710.43;;
14015;SDS011;7083;48.854;9.158;2022-09-09T00:47:26;700.67;;;640.67;;
14015;SDS011;7083;48.854;9.158;2022-09-09T00:50:12;873.27;;;796.30;;
14015;SDS011;7083;48.854;9.158;2022-09-09T00:52:57;950.27;;;867.07;;
14015;SDS011;7083;48.854;9.158;2022-09-09T00:55:33;844.57;;;770.83;;
14015;SDS011;7083;48.854;9.158;2022-09-09T00:58:09;801.40;;;732.83;;
14015;SDS011;7083;48.854;9.158;2022-09-09T01:00:38;759.87;;;699.57;;
14015;SDS011;7083;48.854;9.158;2022-09-09T01:03:19;746.80;;;684.97;;
14015;SDS011;7083;48.854;9.158;2022-09-09T01:05:54;760.60;;;698.27;;
14015;SDS011;7083;48.854;9.158;2022-09-09T01:08:39;757.13;;;693.00;;
14015;SDS011;7083;48.854;9.158;2022-09-09T01:11:20;850.77;;;777.53;;
14015;SDS011;7083;48.854;9.158;2022-09-09T01:13:52;770.23;;;707.13;;
14015;SDS011;7083;48.854;9.158;2022-09-09T01:16:23;751.37;;;689.97;;
14015;SDS011;7083;48.854;9.158;2022-09-09T01:18:51;778.87;;;717.00;;
14015;SDS011;7083;48.854;9.158;2022-09-09T01:21:21;775.93;;;713.40;;
14015;SDS011;7083;48.854;9.158;2022-09-09T01:24:08;825.47;;;755.63;;
14015;SDS011;7083;48.854;9.158;2022-09-09T01:26:46;798.20;;;730.27;;
14015;SDS011;7083;48.854;9.158;2022-09-09T01:29:17;865.60;;;794.83;;
14015;SDS011;7083;48.854;9.158;2022-09-09T01:31:52;863.67;;;790.97;;
14015;SDS011;7083;48.854;9.158;2022-09-09T01:34:21;897.90;;;820.57;;
14015;SDS011;7083;48.854;9.158;2022-09-09T01:36:49;885.03;;;806.40;;
14015;SDS011;7083;48.854;9.158;2022-09-09T01:39:22;853.67;;;779.47;;
14015;SDS011;7083;48.854;9.158;2022-09-09T01:41:50;899.20;;;820.03;;
14015;SDS011;7083;48.854;9.158;2022-09-09T01:44:17;888.57;;;811.73;;
14015;SDS011;7083;48.854;9.158;2022-09-09T01:46:45;897.33;;;818.17;;
14015;SDS011;7083;48.854;9.158;2022-09-09T01:49:12;865.17;;;788.83;;
14015;SDS011;7083;48.854;9.158;2022-09-09T01:51:39;916.13;;;837.57;;
14015;SDS011;7083;48.854;9.158;2022-09-09T01:54:07;891.77;;;814.93;;
14015;SDS011;7083;48.854;9.158;2022-09-09T01:56:36;908.63;;;829.57;;
14015;SDS011;7083;48.854;9.158;2022-09-09T02:02:13;997.77;;;901.73;;
14015;SDS011;7083;48.854;9.158;2022-09-09T02:04:46;948.93;;;861.50;;
14015;SDS011;7083;48.854;9.158;2022-09-09T02:10:05;1001.10;;;906.93;;
14015;SDS011;7083;48.854;9.158;2022-09-09T02:12:37;936.90;;;853.87;;
14015;SDS011;7083;48.854;9.158;2022-09-09T02:15:11;999.60;;;908.00;;
14015;SDS011;7083;48.854;9.158;2022-09-09T02:17:46;1023.80;;;928.17;;
14015;SDS011;7083;48.854;9.158;2022-09-09T02:20:15;1079.90;;;970.77;;
14015;SDS011;7083;48.854;9.158;2022-09-09T02:22:45;1101.57;;;993.70;;
14015;SDS011;7083;48.854;9.158;2022-09-09T02:25:15;1146.37;;;999.90;;
14015;SDS011;7083;48.854;9.158;2022-09-09T02:27:45;1237.20;;;999.90;;
14015;SDS011;7083;48.854;9.158;2022-09-09T02:30:16;1513.00;;;999.90;;
14015;SDS011;7083;48.854;9.158;2022-09-09T02:32:44;1605.37;;;999.90;;
14015;SDS011;7083;48.854;9.158;2022-09-09T02:35:14;1795.00;;;999.90;;
14015;SDS011;7083;48.854;9.158;2022-09-09T02:37:44;1703.77;;;999.90;;
14015;SDS011;7083;48.854;9.158;2022-09-09T02:40:12;1690.33;;;999.90;;
14015;SDS011;7083;48.854;9.158;2022-09-09T02:42:40;1755.17;;;999.90;;
14015;SDS011;7083;48.854;9.158;2022-09-09T02:45:09;1716.27;;;999.90;;
14015;SDS011;7083;48.854;9.158;2022-09-09T02:47:40;1745.33;;;999.90;;
14015;SDS011;7083;48.854;9.158;2022-09-09T02:50:12;1688.80;;;999.90;;
14015;SDS011;7083;48.854;9.158;2022-09-09T02:52:47;1736.27;;;999.90;;
14015;SDS011;7083;48.854;9.158;2022-09-09T02:55:24;1669.90;;;999.90;;
14015;SDS011;7083;48.854;9.158;2022-09-09T02:58:01;1711.47;;;999.90;;
14015;SDS011;7083;48.854;9.158;2022-09-09T03:00:31;1653.43;;;999.90;;
14015;SDS011;7083;48.854;9.158;2022-09-09T03:02:59;1535.10;;;999.90;;
14015;SDS011;7083;48.854;9.158;2022-09-09T03:05:26;1467.00;;;999.90;;
14015;SDS011;7083;48.854;9.158;2022-09-09T03:07:53;1538.20;;;999.90;;
14015;SDS011;7083;48.854;9.158;2022-09-09T03:10:19;1560.63;;;999.90;;
14015;SDS011;7083;48.854;9.158;2022-09-09T03:12:46;1438.77;;;999.90;;
14015;SDS011;7083;48.854;9.158;2022-09-09T03:15:13;1442.53;;;999.90;;
14015;SDS011;7083;48.854;9.158;2022-09-09T03:17:40;1572.60;;;999.90;;
14015;SDS011;7083;48.854;9.158;2022-09-09T03:20:08;1574.07;;;999.90;;
14015;SDS011;7083;48.854;9.158;2022-09-09T03:22:36;1457.07;;;999.90;;
14015;SDS011;7083;48.854;9.158;2022-09-09T03:25:02;1285.00;;;999.90;;
14015;SDS011;7083;48.854;9.158;2022-09-09T03:27:30;1243.07;;;999.90;;
14015;SDS011;7083;48.854;9.158;2022-09-09T03:29:57;1365.53;;;999.90;;
14015;SDS011;7083;48.854;9.158;2022-09-09T03:32:25;1428.10;;;999.90;;
14015;SDS011;7083;48.854;9.158;2022-09-09T03:34:52;1182.83;;;999.90;;
14015;SDS011;7083;48.854;9.158;2022-09-09T03:37:20;1111.17;;;998.90;;
14015;SDS011;7083;48.854;9.158;2022-09-09T03:39:47;1129.87;;;999.90;;
14015;SDS011;7083;48.854;9.158;2022-09-09T03:42:14;1173.67;;;999.90;;
14015;SDS011;7083;48.854;9.158;2022-09-09T03:44:43;1104.57;;;991.83;;
14015;SDS011;7083;48.854;9.158;2022-09-09T03:47:15;1034.50;;;935.17;;
14015;SDS011;7083;48.854;9.158;2022-09-09T03:49:42;1077.63;;;971.07;;
14015;SDS011;7083;48.854;9.158;2022-09-09T03:52:09;1028.27;;;929.77;;
14015;SDS011;7083;48.854;9.158;2022-09-09T03:54:37;933.63;;;846.53;;
14015;SDS011;7083;48.854;9.158;2022-09-09T03:57:04;990.73;;;899.37;;
14015;SDS011;7083;48.854;9.158;2022-09-09T03:59:31;1024.30;;;926.13;;
14015;SDS011;7083;48.854;9.158;2022-09-09T04:01:57;1008.60;;;914.97;;
14015;SDS011;7083;48.854;9.158;2022-09-09T04:04:24;912.47;;;832.27;;
14015;SDS011;7083;48.854;9.158;2022-09-09T04:06:52;979.90;;;887.73;;
14015;SDS011;7083;48.854;9.158;2022-09-09T04:09:18;903.83;;;820.07;;
14015;SDS011;7083;48.854;9.158;2022-09-09T04:11:47;959.00;;;870.00;;
14015;SDS011;7083;48.854;9.158;2022-09-09T04:14:14;999.60;;;909.07;;
14015;SDS011;7083;48.854;9.158;2022-09-09T04:16:41;955.23;;;867.87;;
14015;SDS011;7083;48.854;9.158;2022-09-09T04:19:09;950.07;;;864.53;;
14015;SDS011;7083;48.854;9.158;2022-09-09T04:21:37;961.10;;;871.87;;
14015;SDS011;7083;48.854;9.158;2022-09-09T04:24:05;1021.83;;;927.10;;
14015;SDS011;7083;48.854;9.158;2022-09-09T04:26:32;1011.97;;;917.90;;
14015;SDS011;7083;48.854;9.158;2022-09-09T04:29:00;1025.10;;;928.60;;
14015;SDS011;7083;48.854;9.158;2022-09-09T04:31:27;946.73;;;856.70;;
14015;SDS011;7083;48.854;9.158;2022-09-09T04:33:54;933.17;;;851.00;;
14015;SDS011;7083;48.854;9.158;2022-09-09T04:36:21;956.50;;;869.77;;
14015;SDS011;7083;48.854;9.158;2022-09-09T04:38:47;889.97;;;812.40;;
14015;SDS011;7083;48.854;9.158;2022-09-09T04:41:15;941.80;;;857.77;;
14015;SDS011;7083;48.854;9.158;2022-09-09T04:43:42;974.67;;;886.73;;
14015;SDS011;7083;48.854;9.158;2022-09-09T04:46:10;1012.27;;;922.03;;
14015;SDS011;7083;48.854;9.158;2022-09-09T04:48:37;1044.57;;;946.77;;
14015;SDS011;7083;48.854;9.158;2022-09-09T04:51:05;1042.80;;;943.67;;
14015;SDS011;7083;48.854;9.158;2022-09-09T04:53:34;1046.43;;;944.13;;
14015;SDS011;7083;48.854;9.158;2022-09-09T04:56:01;1088.63;;;979.30;;
14015;SDS011;7083;48.854;9.158;2022-09-09T04:58:28;1063.07;;;957.03;;
14015;SDS011;7083;48.854;9.158;2022-09-09T05:00:55;1006.03;;;913.77;;
14015;SDS011;7083;48.854;9.158;2022-09-09T05:03:30;1060.87;;;958.23;;
14015;SDS011;7083;48.854;9.158;2022-09-09T05:06:01;1078.20;;;972.07;;
14015;SDS011;7083;48.854;9.158;2022-09-09T05:08:29;1107.13;;;993.57;;
14015;SDS011;7083;48.854;9.158;2022-09-09T05:10:56;1007.13;;;914.27;;
14015;SDS011;7083;48.854;9.158;2022-09-09T05:13:24;1013.53;;;921.67;;
14015;SDS011;7083;48.854;9.158;2022-09-09T05:15:51;965.07;;;878.90;;
14015;SDS011;7083;48.854;9.158;2022-09-09T05:18:18;878.70;;;803.10;;
14015;SDS011;7083;48.854;9.158;2022-09-09T05:20:48;881.20;;;807.77;;
14015;SDS011;7083;48.854;9.158;2022-09-09T05:23:16;890.73;;;811.73;;
14015;SDS011;7083;48.854;9.158;2022-09-09T05:25:42;895.10;;;816.97;;
14015;SDS011;7083;48.854;9.158;2022-09-09T05:28:11;858.53;;;782.93;;
14015;SDS011;7083;48.854;9.158;2022-09-09T05:30:38;942.67;;;861.03;;
14015;SDS011;7083;48.854;9.158;2022-09-09T05:33:05;936.23;;;853.20;;
14015;SDS011;7083;48.854;9.158;2022-09-09T05:35:32;957.53;;;871.80;;
14015;SDS011;7083;48.854;9.158;2022-09-09T05:38:00;784.83;;;719.90;;
14015;SDS011;7083;48.854;9.158;2022-09-09T05:40:27;913.30;;;835.73;;
14015;SDS011;7083;48.854;9.158;2022-09-09T05:42:54;899.73;;;822.63;;
14015;SDS011;7083;48.854;9.158;2022-09-09T05:45:20;764.60;;;700.73;;
14015;SDS011;7083;48.854;9.158;2022-09-09T05:47:50;843.40;;;773.40;;
14015;SDS011;7083;48.854;9.158;2022-09-09T05:50:18;874.97;;;799.53;;
14015;SDS011;7083;48.854;9.158;2022-09-09T05:52:44;896.67;;;821.03;;
14015;SDS011;7083;48.854;9.158;2022-09-09T05:55:14;857.83;;;784.47;;
14015;SDS011;7083;48.854;9.158;2022-09-09T05:57:41;963.97;;;882.80;;
14015;SDS011;7083;48.854;9.158;2022-09-09T06:00:08;1001.97;;;914.80;;
14015;SDS011;7083;48.854;9.158;2022-09-09T06:02:37;971.63;;;884.87;;
14015;SDS011;7083;48.854;9.158;2022-09-09T06:05:04;943.53;;;862.30;;
14015;SDS011;7083;48.854;9.158;2022-09-09T06:07:31;1116.63;;;999.90;;
14015;SDS011;7083;48.854;9.158;2022-09-09T06:09:58;1125.33;;;999.90;;
14015;SDS011;7083;48.854;9.158;2022-09-09T06:12:26;1148.10;;;999.90;;
14015;SDS011;7083;48.854;9.158;2022-09-09T06:14:53;1072.00;;;968.67;;
14015;SDS011;7083;48.854;9.158;2022-09-09T06:17:19;1086.57;;;978.10;;
14015;SDS011;7083;48.854;9.158;2022-09-09T06:19:46;1241.93;;;999.90;;
14015;SDS011;7083;48.854;9.158;2022-09-09T06:22:13;1391.07;;;999.90;;
14015;SDS011;7083;48.854;9.158;2022-09-09T06:24:39;1247.00;;;999.90;;
14015;SDS011;7083;48.854;9.158;2022-09-09T06:27:06;1205.30;;;999.90;;
14015;SDS011;7083;48.854;9.158;2022-09-09T06:29:34;1164.90;;;999.90;;
14015;SDS011;7083;48.854;9.158;2022-09-09T06:32:01;1169.57;;;999.90;;
14015;SDS011;7083;48.854;9.158;2022-09-09T06:34:28;1346.80;;;999.90;;
14015;SDS011;7083;48.854;9.158;2022-09-09T06:36:55;1709.47;;;999.90;;
14015;SDS011;7083;48.854;9.158;2022-09-09T06:39:23;1854.23;;;999.90;;
14015;SDS011;7083;48.854;9.158;2022-09-09T06:41:50;1795.90;;;999.90;;
14015;SDS011;7083;48.854;9.158;2022-09-09T06:44:18;1999.90;;;999.90;;
14015;SDS011;7083;48.854;9.158;2022-09-09T06:46:46;1999.90;;;999.90;;
14015;SDS011;7083;48.854;9.158;2022-09-09T06:49:13;1999.90;;;999.90;;
14015;SDS011;7083;48.854;9.158;2022-09-09T06:51:39;1999.90;;;999.90;;
14015;SDS011;7083;48.854;9.158;2022-09-09T06:54:07;1999.90;;;999.90;;
14015;SDS011;7083;48.854;9.158;2022-09-09T06:56:35;1999.90;;;999.90;;
14015;SDS011;7083;48.854;9.158;2022-09-09T06:59:05;1999.90;;;999.90;;
14015;SDS011;7083;48.854;9.158;2022-09-09T07:01:37;1999.90;;;999.90;;
14015;SDS011;7083;48.854;9.158;2022-09-09T07:04:07;1999.90;;;999.90;;
14015;SDS011;7083;48.854;9.158;2022-09-09T07:06:36;1999.90;;;999.90;;
14015;SDS011;7083;48.854;9.158;2022-09-09T07:09:04;1999.90;;;999.90;;
14015;SDS011;7083;48.854;9.158;2022-09-09T07:11:37;1999.90;;;999.90;;
14015;SDS011;7083;48.854;9.158;2022-09-09T07:14:06;1999.90;;;999.90;;
14015;SDS011;7083;48.854;9.158;2022-09-09T07:16:33;1999.90;;;999.90;;
14015;SDS011;7083;48.854;9.158;2022-09-09T07:19:02;1999.90;;;999.90;;
14015;SDS011;7083;48.854;9.158;2022-09-09T07:21:31;1999.90;;;999.90;;
14015;SDS011;7083;48.854;9.158;2022-09-09T07:23:58;1999.90;;;999.90;;
14015;SDS011;7083;48.854;9.158;2022-09-09T07:26:27;1999.90;;;999.90;;
14015;SDS011;7083;48.854;9.158;2022-09-09T07:28:56;1999.90;;;999.90;;
14015;SDS011;7083;48.854;9.158;2022-09-09T07:31:23;1999.90;;;999.90;;
14015;SDS011;7083;48.854;9.158;2022-09-09T07:33:51;1999.90;;;999.90;;
14015;SDS011;7083;48.854;9.158;2022-09-09T07:36:18;1999.90;;;999.90;;
14015;SDS011;7083;48.854;9.158;2022-09-09T07:38:49;1999.90;;;999.90;;
14015;SDS011;7083;48.854;9.158;2022-09-09T07:41:18;1999.90;;;725.17;;
14015;SDS011;7083;48.854;9.158;2022-09-09T07:43:46;1999.90;;;997.93;;
14015;SDS011;7083;48.854;9.158;2022-09-09T07:46:15;1958.50;;;634.30;;
14015;SDS011;7083;48.854;9.158;2022-09-09T07:48:43;1999.90;;;973.47;;
14015;SDS011;7083;48.854;9.158;2022-09-09T07:51:11;1562.90;;;467.33;;
14015;SDS011;7083;48.854;9.158;2022-09-09T07:53:42;1674.90;;;504.07;;
14015;SDS011;7083;48.854;9.158;2022-09-09T07:56:11;1999.90;;;897.87;;
14015;SDS011;7083;48.854;9.158;2022-09-09T07:58:39;1999.90;;;999.90;;
14015;SDS011;7083;48.854;9.158;2022-09-09T08:01:07;1999.90;;;948.27;;
14015;SDS011;7083;48.854;9.158;2022-09-09T08:03:35;1999.90;;;999.90;;
14015;SDS011;7083;48.854;9.158;2022-09-09T08:06:02;1999.90;;;999.90;;
14015;SDS011;7083;48.854;9.158;2022-09-09T08:08:31;1999.90;;;954.20;;
14015;SDS011;7083;48.854;9.158;2022-09-09T08:11:01;1880.80;;;567.77;;
14015;SDS011;7083;48.854;9.158;2022-09-09T08:13:30;1999.90;;;702.17;;
14015;SDS011;7083;48.854;9.158;2022-09-09T08:16:03;1999.90;;;822.93;;
14015;SDS011;7083;48.854;9.158;2022-09-09T08:18:31;1999.90;;;703.63;;
14015;SDS011;7083;48.854;9.158;2022-09-09T08:20:58;1999.90;;;999.90;;
14015;SDS011;7083;48.854;9.158;2022-09-09T08:23:31;1999.90;;;722.03;;
14015;SDS011;7083;48.854;9.158;2022-09-09T08:26:02;1914.70;;;593.97;;
14015;SDS011;7083;48.854;9.158;2022-09-09T08:28:31;1691.97;;;764.77;;
14015;SDS011;7083;48.854;9.158;2022-09-09T08:31:04;1794.30;;;796.67;;
14015;SDS011;7083;48.854;9.158;2022-09-09T08:33:32;1601.93;;;476.53;;
14015;SDS011;7083;48.854;9.158;2022-09-09T08:35:59;1509.30;;;450.60;;
14015;SDS011;7083;48.854;9.158;2022-09-09T08:38:26;1902.07;;;833.30;;
14015;SDS011;7083;48.854;9.158;2022-09-09T08:40:53;1581.33;;;466.20;;
14015;SDS011;7083;48.854;9.158;2022-09-09T08:43:28;1999.90;;;897.83;;
14015;SDS011;7083;48.854;9.158;2022-09-09T08:46:00;1590.67;;;739.43;;
14015;SDS011;7083;48.854;9.158;2022-09-09T08:51:21;1999.90;;;999.90;;
14015;SDS011;7083;48.854;9.158;2022-09-09T08:53:51;1999.90;;;996.40;;
14015;SDS011;7083;48.854;9.158;2022-09-09T08:56:21;1999.90;;;907.03;;
14015;SDS011;7083;48.854;9.158;2022-09-09T08:58:51;1999.90;;;910.87;;
14015;SDS011;7083;48.854;9.158;2022-09-09T09:01:24;1872.07;;;568.23;;
14015;SDS011;7083;48.854;9.158;2022-09-09T09:04:05;1999.90;;;999.90;;
14015;SDS011;7083;48.854;9.158;2022-09-09T09:06:45;1999.90;;;999.90;;
14015;SDS011;7083;48.854;9.158;2022-09-09T09:09:21;1999.90;;;999.90;;
14015;SDS011;7083;48.854;9.158;2022-09-09T09:11:55;1999.90;;;999.90;;
14015;SDS011;7083;48.854;9.158;2022-09-09T09:14:27;1999.90;;;999.90;;
14015;SDS011;7083;48.854;9.158;2022-09-09T09:16:56;1999.90;;;999.90;;
14015;SDS011;7083;48.854;9.158;2022-09-09T09:19:25;1999.90;;;999.90;;
14015;SDS011;7083;48.854;9.158;2022-09-09T09:21:56;1999.90;;;999.90;;
14015;SDS011;7083;48.854;9.158;2022-09-09T09:24:30;1999.90;;;999.90;;
14015;SDS011;7083;48.854;9.158;2022-09-09T09:27:07;1999.90;;;999.90;;
14015;SDS011;7083;48.854;9.158;2022-09-09T09:29:40;1999.90;;;999.90;;
14015;SDS011;7083;48.854;9.158;2022-09-09T09:32:10;1999.90;;;999.90;;
14015;SDS011;7083;48.854;9.158;2022-09-09T09:34:42;1999.90;;;999.90;;
14015;SDS011;7083;48.854;9.158;2022-09-09T09:37:15;1999.90;;;999.90;;
14015;SDS011;7083;48.854;9.158;2022-09-09T09:39:45;1999.90;;;999.90;;
14015;SDS011;7083;48.854;9.158;2022-09-09T09:42:14;1999.90;;;999.90;;
14015;SDS011;7083;48.854;9.158;2022-09-09T09:44:44;1999.90;;;999.90;;
14015;SDS011;7083;48.854;9.158;2022-09-09T09:47:12;1999.90;;;999.90;;
14015;SDS011;7083;48.854;9.158;2022-09-09T09:49:50;1999.90;;;999.90;;
14015;SDS011;7083;48.854;9.158;2022-09-09T09:52:20;1999.90;;;999.90;;
14015;SDS011;7083;48.854;9.158;2022-09-09T09:54:48;1999.90;;;999.90;;
14015;SDS011;7083;48.854;9.158;2022-09-09T09:57:16;1999.90;;;999.90;;
14015;SDS011;7083;48.854;9.158;2022-09-09T09:59:45;1999.90;;;999.90;;
14015;SDS011;7083;48.854;9.158;2022-09-09T10:02:13;1999.90;;;999.90;;
14015;SDS011;7083;48.854;9.158;2022-09-09T10:04:42;1999.90;;;999.90;;
14015;SDS011;7083;48.854;9.158;2022-09-09T10:07:10;1999.90;;;999.90;;
14015;SDS011;7083;48.854;9.158;2022-09-09T10:09:37;1999.90;;;999.90;;
14015;SDS011;7083;48.854;9.158;2022-09-09T10:12:06;1999.90;;;999.90;;
14015;SDS011;7083;48.854;9.158;2022-09-09T10:14:48;1999.90;;;999.90;;
14015;SDS011;7083;48.854;9.158;2022-09-09T10:17:22;1999.90;;;999.90;;
14015;SDS011;7083;48.854;9.158;2022-09-09T10:19:59;1999.90;;;999.90;;
14015;SDS011;7083;48.854;9.158;2022-09-09T10:22:39;1999.90;;;999.90;;
14015;SDS011;7083;48.854;9.158;2022-09-09T10:25:17;1999.90;;;999.90;;
14015;SDS011;7083;48.854;9.158;2022-09-09T10:28:07;1999.90;;;999.90;;
14015;SDS011;7083;48.854;9.158;2022-09-09T10:30:57;1999.90;;;999.90;;
14015;SDS011;7083;48.854;9.158;2022-09-09T10:33:32;1999.90;;;999.90;;
14015;SDS011;7083;48.854;9.158;2022-09-09T10:36:11;1999.90;;;999.90;;
14015;SDS011;7083;48.854;9.158;2022-09-09T10:38:40;1999.90;;;999.90;;
14015;SDS011;7083;48.854;9.158;2022-09-09T10:41:13;1999.90;;;999.90;;
14015;SDS011;7083;48.854;9.158;2022-09-09T10:46:45;1999.90;;;999.90;;
14015;SDS011;7083;48.854;9.158;2022-09-09T10:49:22;1999.90;;;999.90;;
14015;SDS011;7083;48.854;9.158;2022-09-09T10:52:01;1999.90;;;999.90;;
14015;SDS011;7083;48.854;9.158;2022-09-09T10:54:38;1999.90;;;999.90;;
14015;SDS011;7083;48.854;9.158;2022-09-09T10:57:21;1999.90;;;999.90;;
14015;SDS011;7083;48.854;9.158;2022-09-09T10:59:54;1999.90;;;999.90;;
14015;SDS011;7083;48.854;9.158;2022-09-09T11:02:26;1999.90;;;999.90;;
14015;SDS011;7083;48.854;9.158;2022-09-09T11:04:55;1999.90;;;999.90;;
14015;SDS011;7083;48.854;9.158;2022-09-09T11:07:28;1999.90;;;999.90;;
14015;SDS011;7083;48.854;9.158;2022-09-09T11:10:01;1999.90;;;999.90;;
14015;SDS011;7083;48.854;9.158;2022-09-09T11:12:31;1999.90;;;999.90;;
14015;SDS011;7083;48.854;9.158;2022-09-09T11:15:04;1999.90;;;999.90;;
14015;SDS011;7083;48.854;9.158;2022-09-09T11:17:39;1644.47;;;760.27;;
14015;SDS011;7083;48.854;9.158;2022-09-09T11:20:12;1999.90;;;999.90;;
14015;SDS011;7083;48.854;9.158;2022-09-09T11:22:42;1662.03;;;999.90;;
14015;SDS011;7083;48.854;9.158;2022-09-09T11:25:15;971.67;;;879.63;;
14015;SDS011;7083;48.854;9.158;2022-09-09T11:27:44;609.00;;;560.97;;
14015;SDS011;7083;48.854;9.158;2022-09-09T11:30:22;539.07;;;500.70;;
14015;SDS011;7083;48.854;9.158;2022-09-09T11:33:19;366.60;;;337.80;;
14015;SDS011;7083;48.854;9.158;2022-09-09T11:39:02;435.67;;;407.30;;
14015;SDS011;7083;48.854;9.158;2022-09-09T11:41:48;402.93;;;374.50;;
14015;SDS011;7083;48.854;9.158;2022-09-09T11:44:17;312.27;;;289.13;;
14015;SDS011;7083;48.854;9.158;2022-09-09T11:46:53;264.67;;;245.33;;
14015;SDS011;7083;48.854;9.158;2022-09-09T11:49:28;241.07;;;224.00;;
14015;SDS011;7083;48.854;9.158;2022-09-09T11:52:10;278.00;;;257.03;;
14015;SDS011;7083;48.854;9.158;2022-09-09T11:54:47;326.80;;;301.40;;
14015;SDS011;7083;48.854;9.158;2022-09-09T11:57:18;231.80;;;215.50;;
14015;SDS011;7083;48.854;9.158;2022-09-09T11:59:53;245.57;;;228.57;;
14015;SDS011;7083;48.854;9.158;2022-09-09T12:02:22;280.63;;;262.30;;
14015;SDS011;7083;48.854;9.158;2022-09-09T12:04:56;427.10;;;403.10;;
14015;SDS011;7083;48.854;9.158;2022-09-09T12:07:29;304.37;;;285.53;;
14015;SDS011;7083;48.854;9.158;2022-09-09T12:10:02;207.07;;;192.97;;
14015;SDS011;7083;48.854;9.158;2022-09-09T12:12:32;181.57;;;169.33;;
14015;SDS011;7083;48.854;9.158;2022-09-09T12:15:02;240.00;;;225.50;;
14015;SDS011;7083;48.854;9.158;2022-09-09T12:17:46;179.63;;;167.70;;
14015;SDS011;7083;48.854;9.158;2022-09-09T12:20:17;162.47;;;152.33;;
14015;SDS011;7083;48.854;9.158;2022-09-09T12:22:48;190.40;;;178.03;;
14015;SDS011;7083;48.854;9.158;2022-09-09T12:25:41;310.53;;;293.23;;
14015;SDS011;7083;48.854;9.158;2022-09-09T12:28:19;339.67;;;320.37;;
14015;SDS011;7083;48.854;9.158;2022-09-09T12:30:51;381.83;;;358.57;;
14015;SDS011;7083;48.854;9.158;2022-09-09T12:33:24;381.70;;;359.13;;
14015;SDS011;7083;48.854;9.158;2022-09-09T12:36:02;402.63;;;380.20;;
14015;SDS011;7083;48.854;9.158;2022-09-09T12:38:32;399.73;;;375.77;;
14015;SDS011;7083;48.854;9.158;2022-09-09T12:41:01;425.50;;;397.47;;
14015;SDS011;7083;48.854;9.158;2022-09-09T12:43:29;423.97;;;393.40;;
14015;SDS011;7083;48.854;9.158;2022-09-09T12:45:56;448.87;;;418.87;;
14015;SDS011;7083;48.854;9.158;2022-09-09T12:48:28;480.07;;;447.90;;
14015;SDS011;7083;48.854;9.158;2022-09-09T12:50:59;396.23;;;370.60;;
14015;SDS011;7083;48.854;9.158;2022-09-09T12:53:28;481.47;;;451.07;;
14015;SDS011;7083;48.854;9.158;2022-09-09T12:55:59;451.03;;;421.07;;
14015;SDS011;7083;48.854;9.158;2022-09-09T12:58:29;577.37;;;535.03;;
14015;SDS011;7083;48.854;9.158;2022-09-09T13:00:58;688.93;;;634.83;;
14015;SDS011;7083;48.854;9.158;2022-09-09T13:03:25;567.67;;;526.57;;
14015;SDS011;7083;48.854;9.158;2022-09-09T13:05:53;467.20;;;432.70;;
14015;SDS011;7083;48.854;9.158;2022-09-09T13:08:25;416.10;;;385.33;;
14015;SDS011;7083;48.854;9.158;2022-09-09T13:10:54;540.13;;;503.03;;
14015;SDS011;7083;48.854;9.158;2022-09-09T13:13:25;455.27;;;426.13;;
14015;SDS011;7083;48.854;9.158;2022-09-09T13:15:55;463.90;;;432.83;;
14015;SDS011;7083;48.854;9.158;2022-09-09T13:18:24;408.57;;;381.23;;
14015;SDS011;7083;48.854;9.158;2022-09-09T13:20:56;533.37;;;496.03;;
14015;SDS011;7083;48.854;9.158;2022-09-09T13:23:25;410.07;;;385.70;;
14015;SDS011;7083;48.854;9.158;2022-09-09T13:25:55;473.13;;;443.20;;
14015;SDS011;7083;48.854;9.158;2022-09-09T13:28:24;483.87;;;446.57;;
14015;SDS011;7083;48.854;9.158;2022-09-09T13:30:58;438.80;;;411.43;;
14015;SDS011;7083;48.854;9.158;2022-09-09T13:33:30;432.80;;;403.07;;
14015;SDS011;7083;48.854;9.158;2022-09-09T13:35:59;1120.43;;;999.90;;
14015;SDS011;7083;48.854;9.158;2022-09-09T13:38:29;1417.87;;;999.90;;
14015;SDS011;7083;48.854;9.158;2022-09-09T13:41:00;1999.90;;;999.90;;
14015;SDS011;7083;48.854;9.158;2022-09-09T13:43:29;1999.90;;;767.07;;
14015;SDS011;7083;48.854;9.158;2022-09-09T13:46:00;1999.90;;;999.90;;
14015;SDS011;7083;48.854;9.158;2022-09-09T13:48:53;1999.90;;;991.47;;
14015;SDS011;7083;48.854;9.158;2022-09-09T13:51:24;1999.90;;;999.90;;
14015;SDS011;7083;48.854;9.158;2022-09-09T13:53:56;1999.90;;;999.90;;
14015;SDS011;7083;48.854;9.158;2022-09-09T13:56:26;1999.90;;;999.90;;
14015;SDS011;7083;48.854;9.158;2022-09-09T13:58:54;1999.90;;;999.90;;
14015;SDS011;7083;48.854;9.158;2022-09-09T14:01:20;1999.90;;;920.60;;
14015;SDS011;7083;48.854;9.158;2022-09-09T14:03:47;1999.90;;;999.90;;
14015;SDS011;7083;48.854;9.158;2022-09-09T14:06:15;1999.90;;;999.90;;
14015;SDS011;7083;48.854;9.158;2022-09-09T14:08:44;1999.90;;;999.90;;
14015;SDS011;7083;48.854;9.158;2022-09-09T14:11:12;1999.90;;;999.90;;
14015;SDS011;7083;48.854;9.158;2022-09-09T14:13:40;1999.90;;;999.90;;
14015;SDS011;7083;48.854;9.158;2022-09-09T14:16:07;1999.90;;;999.90;;
14015;SDS011;7083;48.854;9.158;2022-09-09T14:18:34;1999.90;;;999.90;;
14015;SDS011;7083;48.854;9.158;2022-09-09T14:21:02;1999.90;;;999.90;;
14015;SDS011;7083;48.854;9.158;2022-09-09T14:23:29;1999.90;;;999.90;;
14015;SDS011;7083;48.854;9.158;2022-09-09T14:25:57;1999.90;;;999.90;;
14015;SDS011;7083;48.854;9.158;2022-09-09T14:28:23;1999.90;;;999.90;;
14015;SDS011;7083;48.854;9.158;2022-09-09T14:30:51;1999.90;;;999.90;;
14015;SDS011;7083;48.854;9.158;2022-09-09T14:33:18;1999.90;;;999.90;;
14015;SDS011;7083;48.854;9.158;2022-09-09T14:35:46;1999.90;;;999.90;;